createdAt,value
2023-03-31T00:00:15.273Z,0.50
2023-03-31T00:01:15.272Z,0.50
2023-03-31T00:02:15.297Z,0.40
2023-03-31T00:03:15.404Z,0.36
2023-03-31T00:04:15.534Z,0.35
2023-03-31T00:05:15.343Z,0.34
2023-03-31T00:06:15.365Z,0.36
2023-03-31T00:07:15.391Z,0.38
2023-03-31T00:08:15.409Z,0.43
2023-03-31T00:09:15.435Z,0.48
2023-03-31T00:10:18.632Z,0.50
2023-03-31T00:11:15.455Z,0.49
2023-03-31T00:12:15.482Z,0.44
2023-03-31T00:13:15.461Z,0.42
2023-03-31T00:14:15.430Z,0.40
2023-03-31T00:15:15.420Z,0.38
2023-03-31T00:16:15.455Z,0.45
2023-03-31T00:17:15.426Z,0.50
2023-03-31T00:18:15.406Z,0.50
2023-03-31T00:19:15.396Z,0.51
2023-03-31T00:20:15.398Z,0.50
2023-03-31T00:21:15.386Z,0.50
2023-03-31T00:22:15.381Z,0.50
2023-03-31T00:23:15.411Z,0.50
2023-03-31T00:24:15.354Z,0.51
2023-03-31T00:25:15.393Z,0.50
2023-03-31T00:26:15.343Z,0.51
2023-03-31T00:27:15.345Z,0.50
2023-03-31T00:28:15.376Z,0.50
2023-03-31T00:29:15.365Z,0.51
2023-03-31T00:30:15.429Z,0.50
2023-03-31T00:31:15.467Z,0.50
2023-03-31T00:32:15.462Z,0.50
2023-03-31T00:33:15.506Z,0.51
2023-03-31T00:34:15.561Z,0.50
2023-03-31T00:35:15.557Z,0.50
2023-03-31T00:36:15.660Z,0.51
2023-03-31T00:37:15.609Z,0.50
2023-03-31T00:38:15.652Z,0.50
2023-03-31T00:39:15.685Z,0.51
2023-03-31T00:40:15.727Z,0.50
2023-03-31T00:41:15.788Z,0.50
2023-03-31T00:42:15.800Z,0.50
2023-03-31T00:43:15.845Z,0.50
2023-03-31T00:44:15.914Z,0.50
2023-03-31T00:45:16.295Z,0.51
2023-03-31T00:46:16.365Z,0.51
2023-03-31T00:47:16.304Z,0.51
2023-03-31T00:48:16.318Z,0.51
2023-03-31T00:49:16.306Z,0.51
2023-03-31T00:50:16.308Z,0.51
2023-03-31T00:51:16.323Z,0.51
2023-03-31T00:52:16.309Z,0.50
2023-03-31T00:53:16.304Z,0.50
2023-03-31T00:54:16.306Z,0.51
2023-03-31T00:55:16.307Z,0.51
2023-03-31T00:56:16.305Z,0.51
2023-03-31T00:57:16.352Z,0.51
2023-03-31T00:58:16.339Z,0.52
2023-03-31T00:59:16.368Z,0.51
2023-03-31T01:00:16.442Z,0.50
2023-03-31T01:01:16.466Z,0.50
2023-03-31T01:02:16.479Z,0.50
2023-03-31T01:03:16.650Z,0.50
2023-03-31T01:04:16.543Z,0.50
2023-03-31T01:05:16.575Z,0.51
2023-03-31T01:06:16.609Z,0.51
2023-03-31T01:07:16.658Z,0.51
2023-03-31T01:08:16.690Z,0.51
2023-03-31T01:09:16.735Z,0.51
2023-03-31T01:10:16.765Z,0.50
2023-03-31T01:11:16.822Z,0.52
2023-03-31T01:12:16.867Z,0.51
2023-03-31T01:13:16.917Z,0.51
2023-03-31T01:14:16.913Z,0.51
2023-03-31T01:15:17.321Z,0.51
2023-03-31T01:16:17.405Z,0.50
2023-03-31T01:17:17.416Z,0.51
2023-03-31T01:18:17.410Z,0.51
2023-03-31T01:19:17.335Z,0.51
2023-03-31T01:20:17.338Z,0.51
2023-03-31T01:21:17.408Z,0.50
2023-03-31T01:22:17.340Z,0.51
2023-03-31T01:23:17.343Z,0.50
2023-03-31T01:24:17.361Z,0.50
2023-03-31T01:25:17.392Z,0.51
2023-03-31T01:26:17.424Z,0.52
2023-03-31T01:27:17.470Z,0.52
2023-03-31T01:28:17.510Z,0.51
2023-03-31T01:29:17.542Z,0.51
2023-03-31T01:30:17.580Z,0.50
2023-03-31T01:31:17.643Z,0.51
2023-03-31T01:32:17.696Z,0.51
2023-03-31T01:33:17.716Z,0.51
2023-03-31T01:34:17.768Z,0.51
2023-03-31T01:35:17.800Z,0.50
2023-03-31T01:36:17.864Z,0.51
2023-03-31T01:37:17.885Z,0.51
2023-03-31T01:38:17.917Z,0.51
2023-03-31T01:39:17.966Z,0.51
2023-03-31T01:40:18.018Z,0.50
2023-03-31T01:41:18.777Z,0.51
2023-03-31T01:42:18.101Z,0.51
2023-03-31T01:43:18.135Z,0.51
2023-03-31T01:44:18.182Z,0.51
2023-03-31T01:45:20.753Z,0.51
2023-03-31T01:46:18.253Z,0.52
2023-03-31T01:47:18.290Z,0.52
2023-03-31T01:48:18.234Z,0.51
2023-03-31T01:49:18.207Z,0.51
2023-03-31T01:50:18.194Z,0.51
2023-03-31T01:51:18.192Z,0.51
2023-03-31T01:52:18.213Z,0.51
2023-03-31T01:53:18.174Z,0.51
2023-03-31T01:54:18.167Z,0.52
2023-03-31T01:55:18.166Z,0.50
2023-03-31T01:56:18.166Z,0.50
2023-03-31T01:57:18.220Z,0.50
2023-03-31T01:58:18.145Z,0.51
2023-03-31T01:59:18.138Z,0.51
2023-03-31T02:00:18.133Z,0.51
2023-03-31T02:01:18.219Z,0.51
2023-03-31T02:02:18.146Z,0.52
2023-03-31T02:03:18.206Z,0.51
2023-03-31T02:04:18.133Z,0.51
2023-03-31T02:05:18.104Z,0.51
2023-03-31T02:06:18.088Z,0.51
2023-03-31T02:07:18.089Z,0.52
2023-03-31T02:08:18.092Z,0.51
2023-03-31T02:09:18.099Z,0.52
2023-03-31T02:10:18.139Z,0.51
2023-03-31T02:11:18.176Z,0.51
2023-03-31T02:12:18.219Z,0.52
2023-03-31T02:13:18.276Z,0.51
2023-03-31T02:14:18.298Z,0.51
2023-03-31T02:15:18.352Z,0.50
2023-03-31T02:16:18.429Z,0.51
2023-03-31T02:17:18.430Z,0.52
2023-03-31T02:18:18.493Z,0.51
2023-03-31T02:19:18.541Z,0.50
2023-03-31T02:20:18.602Z,0.51
2023-03-31T02:21:18.651Z,0.52
2023-03-31T02:22:18.661Z,0.52
2023-03-31T02:23:18.837Z,0.52
2023-03-31T02:24:18.765Z,0.51
2023-03-31T02:25:18.815Z,0.51
2023-03-31T02:26:18.859Z,0.51
2023-03-31T02:27:18.910Z,0.51
2023-03-31T02:28:18.940Z,0.51
2023-03-31T02:29:18.977Z,0.52
2023-03-31T02:30:19.024Z,0.51
2023-03-31T02:31:19.157Z,0.51
2023-03-31T02:32:19.107Z,0.51
2023-03-31T02:33:19.150Z,0.51
2023-03-31T02:34:19.181Z,0.51
2023-03-31T02:35:19.235Z,0.51
2023-03-31T02:36:19.453Z,0.50
2023-03-31T02:37:19.317Z,0.51
2023-03-31T02:38:19.347Z,0.51
2023-03-31T02:39:19.380Z,0.51
2023-03-31T02:40:19.418Z,0.51
2023-03-31T02:41:19.462Z,0.51
2023-03-31T02:42:19.513Z,0.52
2023-03-31T02:43:19.551Z,0.51
2023-03-31T02:44:19.586Z,0.51
2023-03-31T02:45:19.617Z,0.50
2023-03-31T02:46:19.713Z,0.51
2023-03-31T02:47:19.719Z,0.51
2023-03-31T02:48:19.762Z,0.51
2023-03-31T02:49:19.790Z,0.51
2023-03-31T02:50:20.785Z,0.51
2023-03-31T02:51:22.829Z,0.51
2023-03-31T02:52:19.866Z,0.51
2023-03-31T02:53:19.851Z,0.51
2023-03-31T02:54:19.842Z,0.51
2023-03-31T02:55:19.833Z,0.52
2023-03-31T02:56:19.833Z,0.50
2023-03-31T02:57:19.877Z,0.51
2023-03-31T02:58:19.869Z,0.51
2023-03-31T02:59:19.804Z,0.51
2023-03-31T03:00:19.794Z,0.51
2023-03-31T03:01:19.840Z,0.51
2023-03-31T03:02:19.821Z,0.50
2023-03-31T03:03:19.897Z,0.51
2023-03-31T03:04:19.768Z,0.51
2023-03-31T03:05:19.760Z,0.51
2023-03-31T03:06:19.816Z,0.51
2023-03-31T03:07:19.882Z,0.51
2023-03-31T03:08:19.886Z,0.51
2023-03-31T03:09:19.930Z,0.52
2023-03-31T03:10:19.970Z,0.51
2023-03-31T03:11:20.010Z,0.52
2023-03-31T03:12:20.052Z,0.51
2023-03-31T03:13:20.098Z,0.51
2023-03-31T03:14:20.144Z,0.51
2023-03-31T03:15:20.187Z,0.51
2023-03-31T03:16:20.246Z,0.50
2023-03-31T03:17:20.270Z,0.51
2023-03-31T03:18:20.395Z,0.52
2023-03-31T03:19:20.360Z,0.52
2023-03-31T03:20:20.421Z,0.51
2023-03-31T03:21:20.457Z,0.51
2023-03-31T03:22:20.493Z,0.51
2023-03-31T03:23:20.577Z,0.52
2023-03-31T03:24:20.588Z,0.52
2023-03-31T03:25:20.653Z,0.51
2023-03-31T03:26:20.672Z,0.52
2023-03-31T03:27:20.713Z,0.51
2023-03-31T03:28:20.768Z,0.50
2023-03-31T03:29:20.806Z,0.50
2023-03-31T03:30:20.844Z,0.50
2023-03-31T03:31:20.928Z,0.51
2023-03-31T03:32:20.922Z,0.51
2023-03-31T03:33:21.061Z,0.51
2023-03-31T03:34:21.024Z,0.51
2023-03-31T03:35:21.062Z,0.51
2023-03-31T03:36:21.149Z,0.52
2023-03-31T03:37:21.162Z,0.52
2023-03-31T03:38:21.186Z,0.51
2023-03-31T03:39:21.832Z,0.50
2023-03-31T03:40:21.288Z,0.52
2023-03-31T03:41:21.823Z,0.51
2023-03-31T03:42:21.384Z,0.51
2023-03-31T03:43:21.426Z,0.51
2023-03-31T03:44:24.310Z,0.52
2023-03-31T03:45:21.444Z,0.52
2023-03-31T03:46:21.489Z,0.52
2023-03-31T03:47:21.449Z,0.51
2023-03-31T03:48:21.448Z,0.52
2023-03-31T03:49:21.429Z,0.51
2023-03-31T03:50:21.421Z,0.52
2023-03-31T03:51:21.424Z,0.51
2023-03-31T03:52:21.434Z,0.51
2023-03-31T03:53:21.408Z,0.51
2023-03-31T03:54:21.396Z,0.51
2023-03-31T03:55:21.407Z,0.50
2023-03-31T03:56:21.383Z,0.51
2023-03-31T03:57:21.416Z,0.52
2023-03-31T03:58:21.374Z,0.50
2023-03-31T03:59:21.364Z,0.50
2023-03-31T04:00:21.357Z,0.51
2023-03-31T04:01:21.344Z,0.51
2023-03-31T04:02:21.378Z,0.51
2023-03-31T04:03:21.413Z,0.51
2023-03-31T04:04:21.386Z,0.52
2023-03-31T04:05:21.499Z,0.51
2023-03-31T04:06:21.488Z,0.50
2023-03-31T04:07:21.519Z,0.51
2023-03-31T04:08:21.574Z,0.50
2023-03-31T04:09:21.830Z,0.50
2023-03-31T04:10:21.655Z,0.52
2023-03-31T04:11:22.440Z,0.52
2023-03-31T04:12:21.748Z,0.52
2023-03-31T04:13:21.787Z,0.51
2023-03-31T04:14:21.823Z,0.51
2023-03-31T04:15:21.864Z,0.52
2023-03-31T04:16:22.921Z,0.52
2023-03-31T04:17:21.951Z,0.50
2023-03-31T04:18:22.015Z,0.51
2023-03-31T04:19:22.417Z,0.51
2023-03-31T04:20:22.429Z,0.52
2023-03-31T04:21:22.427Z,0.52
2023-03-31T04:22:22.433Z,0.51
2023-03-31T04:23:22.433Z,0.51
2023-03-31T04:24:22.422Z,0.51
2023-03-31T04:25:22.432Z,0.52
2023-03-31T04:26:22.470Z,0.52
2023-03-31T04:27:22.461Z,0.51
2023-03-31T04:28:22.487Z,0.51
2023-03-31T04:29:22.591Z,0.52
2023-03-31T04:30:22.646Z,0.52
2023-03-31T04:31:22.780Z,0.51
2023-03-31T04:32:22.759Z,0.51
2023-03-31T04:33:22.727Z,0.52
2023-03-31T04:34:22.792Z,0.51
2023-03-31T04:35:22.834Z,0.51
2023-03-31T04:36:22.889Z,0.51
2023-03-31T04:37:22.934Z,0.51
2023-03-31T04:38:22.972Z,0.51
2023-03-31T04:39:23.021Z,0.51
2023-03-31T04:40:23.429Z,0.51
2023-03-31T04:41:23.436Z,0.51
2023-03-31T04:42:23.435Z,0.52
2023-03-31T04:43:23.456Z,0.51
2023-03-31T04:44:23.436Z,0.51
2023-03-31T04:45:23.428Z,0.52
2023-03-31T04:46:23.446Z,0.52
2023-03-31T04:47:23.469Z,0.52
2023-03-31T04:48:23.445Z,0.53
2023-03-31T04:49:23.464Z,0.51
2023-03-31T04:50:23.526Z,0.51
2023-03-31T04:51:23.547Z,0.52
2023-03-31T04:52:23.589Z,0.52
2023-03-31T04:53:23.620Z,0.52
2023-03-31T04:54:23.656Z,0.51
2023-03-31T04:55:23.693Z,0.51
2023-03-31T04:56:24.335Z,0.52
2023-03-31T04:57:23.795Z,0.51
2023-03-31T04:58:23.815Z,0.51
2023-03-31T04:59:23.887Z,0.51
2023-03-31T05:00:23.902Z,0.52
2023-03-31T05:01:23.981Z,0.51
2023-03-31T05:02:25.403Z,0.52
2023-03-31T05:03:24.244Z,0.51
2023-03-31T05:04:24.120Z,0.51
2023-03-31T05:05:24.166Z,0.51
2023-03-31T05:06:24.207Z,0.52
2023-03-31T05:07:24.251Z,0.51
2023-03-31T05:08:25.230Z,0.51
2023-03-31T05:09:24.347Z,0.51
2023-03-31T05:10:24.395Z,0.51
2023-03-31T05:11:24.451Z,0.51
2023-03-31T05:12:24.492Z,0.52
2023-03-31T05:13:24.542Z,0.51
2023-03-31T05:14:24.571Z,0.51
2023-03-31T05:15:24.644Z,0.52
2023-03-31T05:16:24.862Z,0.50
2023-03-31T05:17:24.889Z,0.51
2023-03-31T05:18:24.751Z,0.50
2023-03-31T05:19:24.801Z,0.51
2023-03-31T05:20:24.849Z,0.52
2023-03-31T05:21:24.889Z,0.53
2023-03-31T05:22:25.361Z,0.53
2023-03-31T05:23:24.975Z,0.54
2023-03-31T05:24:25.023Z,0.53
2023-03-31T05:25:25.057Z,0.55
2023-03-31T05:26:25.434Z,0.54
2023-03-31T05:27:25.133Z,0.55
2023-03-31T05:28:25.186Z,0.56
2023-03-31T05:29:25.217Z,0.56
2023-03-31T05:30:25.254Z,0.58
2023-03-31T05:31:25.373Z,0.57
2023-03-31T05:32:25.329Z,0.58
2023-03-31T05:33:25.369Z,0.57
2023-03-31T05:34:25.403Z,0.58
2023-03-31T05:35:25.436Z,0.59
2023-03-31T05:36:25.934Z,0.62
2023-03-31T05:37:25.500Z,0.61
2023-03-31T05:38:25.518Z,0.62
2023-03-31T05:39:26.367Z,0.63
2023-03-31T05:40:25.598Z,0.65
2023-03-31T05:41:26.040Z,0.65
2023-03-31T05:42:25.623Z,0.77
2023-03-31T05:43:25.867Z,0.88
2023-03-31T05:44:25.869Z,0.92
2023-03-31T05:45:25.694Z,0.97
2023-03-31T05:46:25.763Z,0.97
2023-03-31T05:47:25.755Z,0.96
2023-03-31T05:48:25.735Z,0.94
2023-03-31T05:49:25.920Z,0.92
2023-03-31T05:50:25.787Z,0.92
2023-03-31T05:51:25.800Z,0.90
2023-03-31T05:52:25.983Z,0.91
2023-03-31T05:53:25.903Z,0.90
2023-03-31T05:54:29.082Z,0.89
2023-03-31T05:55:25.838Z,0.89
2023-03-31T05:56:25.864Z,0.88
2023-03-31T05:57:25.929Z,0.87
2023-03-31T05:58:26.890Z,0.87
2023-03-31T05:59:25.824Z,0.87
2023-03-31T06:00:25.798Z,0.86
2023-03-31T06:01:25.861Z,0.87
2023-03-31T06:02:25.996Z,0.85
2023-03-31T06:03:26.044Z,0.86
2023-03-31T06:04:25.812Z,0.85
2023-03-31T06:05:25.770Z,0.84
2023-03-31T06:06:25.752Z,0.85
2023-03-31T06:07:25.840Z,0.84
2023-03-31T06:08:25.885Z,0.84
2023-03-31T06:09:25.757Z,0.84
2023-03-31T06:10:25.739Z,0.84
2023-03-31T06:11:25.741Z,0.82
2023-03-31T06:12:25.744Z,0.83
2023-03-31T06:13:25.888Z,0.82
2023-03-31T06:14:25.722Z,0.81
2023-03-31T06:15:25.753Z,0.81
2023-03-31T06:16:25.838Z,0.80
2023-03-31T06:17:26.470Z,0.81
2023-03-31T06:18:25.884Z,0.81
2023-03-31T06:19:25.881Z,0.81
2023-03-31T06:20:28.486Z,0.79
2023-03-31T06:21:25.872Z,0.83
2023-03-31T06:22:25.864Z,0.81
2023-03-31T06:23:25.922Z,0.80
2023-03-31T06:24:25.905Z,0.80
2023-03-31T06:25:25.859Z,0.79
2023-03-31T06:26:25.840Z,0.79
2023-03-31T06:27:25.856Z,0.79
2023-03-31T06:28:25.891Z,0.77
2023-03-31T06:29:25.816Z,0.79
2023-03-31T06:30:25.805Z,0.78
2023-03-31T06:31:25.993Z,0.77
2023-03-31T06:32:25.806Z,0.79
2023-03-31T06:33:25.892Z,0.77
2023-03-31T06:34:25.796Z,0.78
2023-03-31T06:35:25.805Z,0.77
2023-03-31T06:36:25.767Z,0.76
2023-03-31T06:37:25.855Z,0.77
2023-03-31T06:38:25.744Z,0.76
2023-03-31T06:39:28.105Z,0.75
2023-03-31T06:40:25.907Z,0.75
2023-03-31T06:41:25.762Z,0.75
2023-03-31T06:42:25.733Z,0.75
2023-03-31T06:43:25.722Z,0.75
2023-03-31T06:44:25.710Z,0.74
2023-03-31T06:45:25.706Z,0.74
2023-03-31T06:46:25.757Z,0.74
2023-03-31T06:47:25.717Z,0.74
2023-03-31T06:48:25.914Z,0.74
2023-03-31T06:49:25.682Z,0.74
2023-03-31T06:50:25.667Z,0.73
2023-03-31T06:51:41.295Z,0.73
2023-03-31T06:52:25.677Z,0.73
2023-03-31T06:53:25.897Z,0.74
2023-03-31T06:54:28.851Z,0.74
2023-03-31T06:55:25.669Z,0.73
2023-03-31T06:56:25.628Z,0.73
2023-03-31T06:57:25.668Z,0.74
2023-03-31T06:58:26.393Z,0.74
2023-03-31T06:59:25.904Z,0.73
2023-03-31T07:00:25.607Z,0.73
2023-03-31T07:01:25.648Z,0.73
2023-03-31T07:02:25.734Z,0.74
2023-03-31T07:03:25.708Z,0.73
2023-03-31T07:04:26.903Z,0.74
2023-03-31T07:05:25.561Z,0.75
2023-03-31T07:06:25.561Z,0.73
2023-03-31T07:07:25.583Z,0.74
2023-03-31T07:08:25.936Z,0.73
2023-03-31T07:09:25.613Z,0.72
2023-03-31T07:10:25.640Z,0.71
2023-03-31T07:11:25.684Z,0.71
2023-03-31T07:12:25.713Z,0.72
2023-03-31T07:13:26.146Z,0.71
2023-03-31T07:14:25.806Z,0.71
2023-03-31T07:15:25.859Z,0.72
2023-03-31T07:16:25.901Z,0.71
2023-03-31T07:17:25.970Z,0.70
2023-03-31T07:18:26.407Z,0.71
2023-03-31T07:19:26.026Z,0.69
2023-03-31T07:20:26.085Z,0.70
2023-03-31T07:21:26.106Z,0.71
2023-03-31T07:22:26.517Z,0.69
2023-03-31T07:23:26.941Z,0.69
2023-03-31T07:24:26.532Z,0.70
2023-03-31T07:25:26.526Z,0.71
2023-03-31T07:26:26.534Z,0.69
2023-03-31T07:27:26.592Z,0.69
2023-03-31T07:28:27.911Z,0.69
2023-03-31T07:29:27.530Z,0.72
2023-03-31T07:30:26.532Z,0.70
2023-03-31T07:31:26.548Z,0.69
2023-03-31T07:32:28.942Z,0.69
2023-03-31T07:33:26.945Z,0.72
2023-03-31T07:34:26.543Z,0.70
2023-03-31T07:35:26.544Z,0.71
2023-03-31T07:36:26.553Z,0.69
2023-03-31T07:37:26.533Z,0.70
2023-03-31T07:38:26.916Z,0.70
2023-03-31T07:39:27.571Z,0.70
2023-03-31T07:40:26.936Z,0.68
2023-03-31T07:41:26.541Z,0.69
2023-03-31T07:42:26.552Z,0.69
2023-03-31T07:43:27.552Z,0.68
2023-03-31T07:44:26.956Z,0.69
2023-03-31T07:45:26.961Z,0.69
2023-03-31T07:46:26.717Z,0.69
2023-03-31T07:47:26.691Z,0.69
2023-03-31T07:48:26.704Z,0.70
2023-03-31T07:49:26.934Z,0.69
2023-03-31T07:50:26.772Z,0.69
2023-03-31T07:51:27.561Z,0.69
2023-03-31T07:52:26.823Z,0.69
2023-03-31T07:53:26.879Z,0.69
2023-03-31T07:54:26.939Z,0.71
2023-03-31T07:55:27.610Z,0.75
2023-03-31T07:56:26.989Z,0.78
2023-03-31T07:57:27.085Z,0.80
2023-03-31T07:58:27.549Z,0.83
2023-03-31T07:59:27.058Z,0.85
2023-03-31T08:00:27.076Z,0.88
2023-03-31T08:01:27.086Z,0.92
2023-03-31T08:02:27.166Z,0.94
2023-03-31T08:03:27.432Z,0.97
2023-03-31T08:04:27.479Z,1.01
2023-03-31T08:05:27.108Z,1.07
2023-03-31T08:06:27.106Z,1.12
2023-03-31T08:07:27.110Z,1.15
2023-03-31T08:08:27.434Z,1.20
2023-03-31T08:09:27.445Z,1.23
2023-03-31T08:10:27.215Z,1.17
2023-03-31T08:11:27.472Z,1.10
2023-03-31T08:12:27.432Z,1.13
2023-03-31T08:13:27.556Z,1.10
2023-03-31T08:14:40.619Z,1.14
2023-03-31T08:15:27.266Z,1.14
2023-03-31T08:16:27.280Z,1.15
2023-03-31T08:17:27.264Z,1.15
2023-03-31T08:18:27.235Z,1.08
2023-03-31T08:19:27.454Z,1.02
2023-03-31T08:20:27.255Z,0.96
2023-03-31T08:21:27.436Z,0.95
2023-03-31T08:22:27.187Z,0.94
2023-03-31T08:23:27.186Z,0.91
2023-03-31T08:24:27.184Z,0.92
2023-03-31T08:25:27.175Z,0.92
2023-03-31T08:26:27.449Z,0.84
2023-03-31T08:27:27.181Z,0.81
2023-03-31T08:28:27.146Z,0.83
2023-03-31T08:29:27.173Z,0.80
2023-03-31T08:30:27.368Z,0.77
2023-03-31T08:31:27.689Z,0.73
2023-03-31T08:32:27.139Z,0.64
2023-03-31T08:33:27.652Z,0.61
2023-03-31T08:34:27.101Z,0.61
2023-03-31T08:35:27.439Z,0.60
2023-03-31T08:36:27.135Z,0.64
2023-03-31T08:37:27.571Z,0.68
2023-03-31T08:38:27.073Z,0.69
2023-03-31T08:39:27.063Z,0.72
2023-03-31T08:40:27.947Z,0.65
2023-03-31T08:41:27.044Z,0.66
2023-03-31T08:42:27.575Z,0.67
2023-03-31T08:43:27.065Z,0.65
2023-03-31T08:44:27.025Z,0.62
2023-03-31T08:45:27.615Z,0.59
2023-03-31T08:46:27.031Z,0.60
2023-03-31T08:47:27.647Z,0.59
2023-03-31T08:48:27.003Z,0.59
2023-03-31T08:49:27.018Z,0.57
2023-03-31T08:50:26.002Z,0.57
2023-03-31T08:51:27.085Z,0.56
2023-03-31T08:52:27.580Z,0.56
2023-03-31T08:53:27.319Z,0.57
2023-03-31T08:54:27.129Z,0.54
2023-03-31T08:55:26.970Z,0.52
2023-03-31T08:56:26.929Z,0.51
2023-03-31T08:57:27.072Z,0.53
2023-03-31T08:58:26.920Z,0.52
2023-03-31T08:59:26.986Z,0.51
2023-03-31T09:00:27.585Z,0.53
2023-03-31T09:01:26.970Z,0.52
2023-03-31T09:02:27.200Z,0.51
2023-03-31T09:03:26.974Z,0.50
2023-03-31T09:04:26.917Z,0.52
2023-03-31T09:05:27.121Z,0.50
2023-03-31T09:06:26.964Z,0.50
2023-03-31T09:07:26.864Z,0.50
2023-03-31T09:08:27.589Z,0.50
2023-03-31T09:09:26.950Z,0.52
2023-03-31T09:10:26.958Z,0.52
2023-03-31T09:11:26.843Z,0.51
2023-03-31T09:12:26.857Z,0.50
2023-03-31T09:13:27.617Z,0.53
2023-03-31T09:14:26.996Z,0.52
2023-03-31T09:15:27.008Z,0.52
2023-03-31T09:16:27.090Z,0.50
2023-03-31T09:17:27.091Z,0.51
2023-03-31T09:18:27.596Z,0.51
2023-03-31T09:19:27.171Z,0.52
2023-03-31T09:20:27.594Z,0.53
2023-03-31T09:21:27.657Z,0.51
2023-03-31T09:22:27.753Z,0.50
2023-03-31T09:23:27.966Z,0.50
2023-03-31T09:24:28.030Z,0.52
2023-03-31T09:25:27.606Z,0.50
2023-03-31T09:26:28.006Z,0.52
2023-03-31T09:27:27.652Z,0.52
2023-03-31T09:28:27.692Z,0.52
2023-03-31T09:29:27.971Z,0.53
2023-03-31T09:30:27.783Z,0.54
2023-03-31T09:31:27.881Z,0.52
2023-03-31T09:32:27.899Z,0.52
2023-03-31T09:33:27.909Z,0.54
2023-03-31T09:34:27.979Z,0.56
2023-03-31T09:35:28.023Z,0.57
2023-03-31T09:36:28.073Z,0.59
2023-03-31T09:37:28.468Z,0.60
2023-03-31T09:38:28.065Z,0.63
2023-03-31T09:39:28.094Z,0.62
2023-03-31T09:40:28.115Z,0.64
2023-03-31T09:41:28.096Z,0.60
2023-03-31T09:42:28.502Z,0.60
2023-03-31T09:43:28.184Z,0.55
2023-03-31T09:44:28.226Z,0.56
2023-03-31T09:45:28.264Z,0.55
2023-03-31T09:46:28.325Z,0.54
2023-03-31T09:47:28.542Z,0.56
2023-03-31T09:48:28.442Z,0.59
2023-03-31T09:49:28.518Z,0.56
2023-03-31T09:50:28.477Z,0.58
2023-03-31T09:51:28.494Z,0.58
2023-03-31T09:52:28.501Z,0.64
2023-03-31T09:53:28.584Z,0.72
2023-03-31T09:54:28.987Z,0.70
2023-03-31T09:55:39.160Z,0.69
2023-03-31T09:56:28.672Z,0.69
2023-03-31T09:57:30.007Z,0.70
2023-03-31T09:58:28.674Z,0.69
2023-03-31T09:59:28.653Z,0.69
2023-03-31T10:00:28.644Z,0.70
2023-03-31T10:01:28.655Z,0.70
2023-03-31T10:02:28.664Z,0.73
2023-03-31T10:03:28.648Z,0.72
2023-03-31T10:04:28.731Z,0.67
2023-03-31T10:05:28.991Z,0.66
2023-03-31T10:06:28.635Z,0.64
2023-03-31T10:07:28.592Z,0.62
2023-03-31T10:08:28.598Z,0.62
2023-03-31T10:09:28.587Z,0.59
2023-03-31T10:10:28.993Z,0.63
2023-03-31T10:11:28.567Z,0.63
2023-03-31T10:12:28.560Z,0.63
2023-03-31T10:13:28.549Z,0.64
2023-03-31T10:14:28.545Z,0.62
2023-03-31T10:15:29.102Z,0.63
2023-03-31T10:16:29.049Z,0.50
2023-03-31T10:17:28.599Z,0.53
2023-03-31T10:18:28.544Z,0.51
2023-03-31T10:19:28.550Z,0.52
2023-03-31T10:20:28.997Z,0.55
2023-03-31T10:21:28.502Z,0.49
2023-03-31T10:22:28.491Z,0.50
2023-03-31T10:23:28.496Z,0.54
2023-03-31T10:24:28.485Z,0.50
2023-03-31T10:25:28.490Z,0.50
2023-03-31T10:26:29.004Z,0.52
2023-03-31T10:27:28.546Z,0.50
2023-03-31T10:28:28.553Z,0.55
2023-03-31T10:29:31.779Z,0.52
2023-03-31T10:30:29.645Z,0.52
2023-03-31T10:31:28.561Z,0.53
2023-03-31T10:32:28.618Z,0.53
2023-03-31T10:33:28.575Z,0.51
2023-03-31T10:34:28.523Z,0.56
2023-03-31T10:35:29.021Z,0.61
2023-03-31T10:36:29.657Z,0.57
2023-03-31T10:37:29.676Z,0.62
2023-03-31T10:38:28.988Z,0.60
2023-03-31T10:39:28.498Z,0.59
2023-03-31T10:40:28.481Z,0.61
2023-03-31T10:41:28.521Z,0.61
2023-03-31T10:42:28.986Z,0.62
2023-03-31T10:43:28.540Z,0.82
2023-03-31T10:44:28.569Z,0.95
2023-03-31T10:45:37.215Z,0.91
2023-03-31T10:46:29.695Z,0.91
2023-03-31T10:47:28.579Z,0.88
2023-03-31T10:48:28.567Z,0.88
2023-03-31T10:49:28.569Z,0.79
2023-03-31T10:50:29.007Z,0.74
2023-03-31T10:51:28.578Z,0.75
2023-03-31T10:52:29.008Z,0.73
2023-03-31T10:53:31.497Z,0.75
2023-03-31T10:54:28.538Z,0.75
2023-03-31T10:55:29.000Z,0.76
2023-03-31T10:56:28.507Z,0.76
2023-03-31T10:57:28.556Z,0.77
2023-03-31T10:58:28.501Z,0.79
2023-03-31T10:59:28.525Z,0.84
2023-03-31T11:00:29.005Z,0.90
2023-03-31T11:01:28.517Z,0.87
2023-03-31T11:02:28.542Z,0.83
2023-03-31T11:03:28.574Z,0.89
2023-03-31T11:04:28.471Z,0.85
2023-03-31T11:05:28.452Z,0.83
2023-03-31T11:06:29.033Z,0.78
2023-03-31T11:07:29.046Z,0.79
2023-03-31T11:08:28.439Z,0.78
2023-03-31T11:09:28.433Z,0.83
2023-03-31T11:10:31.016Z,0.82
2023-03-31T11:11:28.545Z,0.87
2023-03-31T11:12:31.036Z,0.95
2023-03-31T11:13:28.443Z,0.95
2023-03-31T11:14:30.793Z,0.95
2023-03-31T11:15:28.388Z,0.95
2023-03-31T11:16:28.715Z,0.83
2023-03-31T11:17:28.410Z,0.81
2023-03-31T11:18:28.363Z,0.78
2023-03-31T11:19:28.368Z,0.74
2023-03-31T11:20:30.673Z,0.74
2023-03-31T11:21:28.514Z,0.76
2023-03-31T11:22:29.011Z,0.79
2023-03-31T11:23:28.350Z,0.79
2023-03-31T11:24:28.319Z,0.80
2023-03-31T11:25:28.314Z,0.77
2023-03-31T11:26:30.440Z,0.76
2023-03-31T11:27:28.306Z,0.76
2023-03-31T11:28:28.292Z,0.75
2023-03-31T11:29:29.023Z,0.74
2023-03-31T11:30:28.513Z,0.71
2023-03-31T11:31:28.275Z,0.71
2023-03-31T11:32:30.757Z,0.68
2023-03-31T11:33:28.517Z,0.69
2023-03-31T11:34:28.245Z,0.69
2023-03-31T11:35:28.235Z,0.70
2023-03-31T11:36:28.231Z,0.73
2023-03-31T11:37:28.222Z,0.78
2023-03-31T11:38:28.228Z,0.82
2023-03-31T11:39:28.234Z,0.86
2023-03-31T11:40:28.206Z,0.88
2023-03-31T11:41:28.196Z,0.90
2023-03-31T11:42:28.188Z,0.93
2023-03-31T11:43:28.187Z,0.96
2023-03-31T11:44:28.166Z,0.93
2023-03-31T11:45:28.166Z,0.97
2023-03-31T11:46:28.573Z,0.95
2023-03-31T11:47:28.179Z,1.01
2023-03-31T11:48:28.147Z,1.02
2023-03-31T11:49:28.153Z,1.02
2023-03-31T11:50:28.134Z,1.02
2023-03-31T11:51:28.136Z,1.01
2023-03-31T11:52:28.524Z,1.00
2023-03-31T11:53:28.103Z,0.98
2023-03-31T11:54:28.089Z,0.99
2023-03-31T11:55:28.116Z,1.02
2023-03-31T11:56:28.080Z,0.98
2023-03-31T11:57:28.121Z,0.98
2023-03-31T11:58:28.068Z,0.99
2023-03-31T11:59:28.059Z,0.94
2023-03-31T12:00:28.056Z,0.91
2023-03-31T12:01:28.049Z,0.90
2023-03-31T12:02:28.099Z,0.84
2023-03-31T12:03:28.543Z,0.86
2023-03-31T12:04:28.163Z,0.91
2023-03-31T12:05:28.234Z,0.87
2023-03-31T12:06:28.314Z,0.89
2023-03-31T12:07:28.295Z,0.92
2023-03-31T12:08:28.314Z,0.89
2023-03-31T12:09:28.349Z,1.00
2023-03-31T12:10:28.362Z,1.07
2023-03-31T12:11:28.563Z,0.78
2023-03-31T12:12:28.427Z,0.50
2023-03-31T12:13:29.032Z,0.56
2023-03-31T12:14:28.501Z,0.51
2023-03-31T12:15:28.538Z,0.52
2023-03-31T12:16:29.097Z,0.54
2023-03-31T12:17:29.064Z,0.44
2023-03-31T12:18:28.605Z,0.55
2023-03-31T12:19:28.637Z,0.64
2023-03-31T12:20:28.703Z,0.73
2023-03-31T12:21:28.738Z,0.75
2023-03-31T12:22:28.797Z,0.92
2023-03-31T12:23:31.536Z,1.02
2023-03-31T12:24:28.780Z,1.15
2023-03-31T12:25:28.784Z,1.45
2023-03-31T12:26:28.787Z,1.62
2023-03-31T12:27:29.063Z,1.67
2023-03-31T12:28:28.764Z,1.79
2023-03-31T12:29:28.754Z,1.83
2023-03-31T12:30:28.751Z,1.88
2023-03-31T12:31:28.755Z,1.86
2023-03-31T12:32:28.778Z,1.84
2023-03-31T12:33:28.723Z,1.82
2023-03-31T12:34:28.742Z,1.79
2023-03-31T12:35:28.707Z,1.82
2023-03-31T12:36:28.756Z,1.80
2023-03-31T12:37:29.045Z,1.79
2023-03-31T12:38:28.693Z,1.82
2023-03-31T12:39:29.728Z,1.79
2023-03-31T12:40:29.709Z,1.79
2023-03-31T12:41:28.815Z,1.89
2023-03-31T12:42:29.044Z,1.86
2023-03-31T12:43:29.737Z,1.86
2023-03-31T12:44:28.907Z,1.81
2023-03-31T12:45:28.957Z,1.84
2023-03-31T12:46:30.058Z,1.93
2023-03-31T12:47:30.058Z,1.94
2023-03-31T12:48:29.268Z,1.91
2023-03-31T12:49:29.213Z,1.91
2023-03-31T12:50:29.253Z,1.91
2023-03-31T12:51:29.282Z,1.98
2023-03-31T12:52:29.722Z,2.16
2023-03-31T12:53:29.722Z,2.45
2023-03-31T12:54:29.744Z,2.61
2023-03-31T12:55:29.717Z,2.94
2023-03-31T12:56:29.718Z,3.17
2023-03-31T12:57:30.107Z,3.57
2023-03-31T12:58:32.409Z,4.06
2023-03-31T12:59:29.744Z,4.08
2023-03-31T13:00:29.739Z,4.17
2023-03-31T13:01:29.748Z,4.23
2023-03-31T13:02:30.208Z,5.01
2023-03-31T13:03:29.725Z,5.31
2023-03-31T13:04:29.723Z,4.87
2023-03-31T13:05:29.727Z,4.87
2023-03-31T13:06:30.070Z,5.03
2023-03-31T13:07:29.725Z,5.20
2023-03-31T13:08:29.730Z,5.28
2023-03-31T13:09:29.729Z,5.33
2023-03-31T13:10:32.138Z,5.50
2023-03-31T13:11:29.729Z,5.76
2023-03-31T13:12:30.068Z,5.72
2023-03-31T13:13:29.729Z,5.58
2023-03-31T13:14:29.735Z,5.54
2023-03-31T13:15:29.769Z,5.63
2023-03-31T13:16:29.784Z,5.60
2023-03-31T13:17:30.089Z,5.60
2023-03-31T13:18:29.735Z,5.58